Naval Anacostia Annex, DC (20373)

2:18 AM EST on February 08, 2016 (GMT -0500)
Capitol Quarters | | Change Station
CLOSE
Current Station
Personal Weather Station
Location: Washington, DC
Elevation: 20 ft
Nearby Weather Stations

Elev 20 ft 38.88 °N, 77.00 °W | Updated 9 minutes ago

Mostly Cloudy
Mostly Cloudy
38.3 °F
Feels Like 33 °F
N
7.8
Wind Variable Wind from NW

Today
High -- | Low -- °F
--% Chance of Precip.
Yesterday
High -- | Low -- °F
Precip. -- in
Pressure 29.80 in
Visibility 10.0 miles
Clouds Mostly Cloudy 14000 ft
Mostly Cloudy 22000 ft
Windchill 33 °F
Dew Point 21 °F
Humidity 50%
Rainfall 0.00 in
Snow Depth Not available.
7:07 AM 5:37 PM
Waning Crescent, 0% visible
METAR KDCA 080652Z 34011KT 10SM BKN140 BKN220 03/M05 A2980 RMK AO2 SLP090 T00331050
Pressure 29.80 in
Visibility 10.0 miles
Clouds Mostly Cloudy 14000 ft
Mostly Cloudy 22000 ft
Windchill 33 °F
Dew Point 21 °F
Humidity 50%
Rainfall 0.00 in
Snow Depth Not available.
7:07 AM 5:37 PM
Waning Crescent, 0% visible
METAR KDCA 080652Z 34011KT 10SM BKN140 BKN220 03/M05 A2980 RMK AO2 SLP090 T00331050

10-Day Weather Forecast

Almanac

Astronomy

Feb. 08, 2016 Rise Set
Actual Time
Civil Twilight
Nautical Twilight
Astronomical Twilight
Moon
Length of Visible Light
Length of Day
Tomorrow will be .
, % of the Moon is Illuminated

Today's Extremes

State Highs State Lows

Community

WunderPhotos

Upload Photos

1,891,394 photos uploaded!

WunderBlog® & News

Nearby

Air Quality

  Air Quality AQ Index Pollutant
Not available.

Snow Depth

Station Depth Elevation

Earthquake Activity

City Distance Mag. Time & Date
Minimum magnitude displayed is 2.5.

Coastal Water Temperatures

Place Temperature

Stations

Nearby Weather Stations

Station Location Temp. Windchill Dew Point Humidity Wind Precip. Elev Updated Type
                   

Watches & Warnings

There are currently no watches in effect.